Airfield :
LOGIN :

Register | Disclaimer

   EN    FR    IT 

 










Legend :    VFR   Marginal VFR   IFR   Intensive IFR   Very Intensive IFR
Visi :
Ceiling :
>= 8 km
>= 3000ft
5 to 8 km
1000 to 3000 ft
1500m to 5 km
500 to 1000 ft
800 to 1500m
200 to 500 ft
< 800m
< 200 ft
Symbols :   Thunderstorms  Fog  Heavy snow  Heavy precipitations  Wind > 20 kt
SIGMETs :     Misc.  Thunderstorms  Icing  Turbulence  Mountain Waves  Volcanic Ashes






- Airport Elevation : 3855 ft


DAAY - Mecheria

CURRENT METAR :
  • 291300Z 20012KT 8000 FEW030 38/01 Q1017

EXPIRED METARs :
  • 291200Z 20008KT 9999 FEW030 36/03 Q1018
  • 291100Z 20008KT 9999 FEW030 33/06 Q1019

TAF TAF DAAY
Valid from the 29 at 12:00 until the 29 at 21:00 UTC


291100Z 2912/2921 20008KT 9999 FEW030
PROB30
TEMPO 2914/2918 25015G26KT 3000 DRSA
PROB30
TEMPO 2915/2918 TS FEW026CB



MET'MAP, your aeronautical weather chart ! - Copyright ORBIFLY December 2007 - Disclaimer

ORBIFLY MET'MAP TEAM :

Programming & Development : Alexandra Zaïnal
Original concept : Baudouin d'Aumeries
Technical & hardware support : Manuel Goepfert
Assistance : Marc-Olivier Méhu




SOURCES & CREDITS :

   NOAA